Keswick, Canada
Current Conditions -  °F | °C
As of 11:39 PM on Monday 20 Oct 2014 (Local Time) from CYBN Reporting Station
Light Rain Light Rain  
Wind Chill: 48°   Ceiling: 1400
Heat Index: 48°   Visibility: 1.7mi
Dew Point: 48°   Wind: 0mph
Humidity: 100%   Direction: NA
Pressure: 29.79"   Gusts: NA
Location:  44.24°N, 79.47°W
Report Text: CYBN 210339Z AUTO 00000KT 1 3/4SM -RA BKN014 OVC024 OVC034 OVC043 09/09 A2979
Loading
Personal Weather Stations






























Interactive Weather Map
Tropical Storm Tracking
New forecast layout! Learn more

10-Day Weather Forecast

Advertisements
Track Severe Weather on mobile